sensor_id;sensor_type;location;lat;lon;timestamp;pressure;altitude;pressure_sealevel;temperature;humidity
596;BME280;19946;49.306;11.350;2024-01-15T00:02:44;95075.19;;;-5.97;100.00
596;BME280;19946;49.306;11.350;2024-01-15T00:05:45;95105.38;;;-5.77;100.00
596;BME280;19946;49.306;11.350;2024-01-15T00:08:45;95109.84;;;-5.83;100.00
596;BME280;19946;49.306;11.350;2024-01-15T00:11:47;95078.47;;;-5.95;100.00
596;BME280;19946;49.306;11.350;2024-01-15T00:14:47;95052.06;;;-6.07;100.00
596;BME280;19946;49.306;11.350;2024-01-15T00:17:47;95047.13;;;-5.90;100.00
596;BME280;19946;49.306;11.350;2024-01-15T00:20:48;95038.53;;;-6.24;100.00
596;BME280;19946;49.306;11.350;2024-01-15T00:23:48;95036.59;;;-6.18;100.00
596;BME280;19946;49.306;11.350;2024-01-15T00:26:48;95070.47;;;-5.86;100.00
596;BME280;19946;49.306;11.350;2024-01-15T00:29:49;95029.53;;;-6.10;100.00
596;BME280;19946;49.306;11.350;2024-01-15T00:32:50;95060.47;;;-5.88;100.00
596;BME280;19946;49.306;11.350;2024-01-15T00:35:51;95037.38;;;-5.97;100.00
596;BME280;19946;49.306;11.350;2024-01-15T00:38:51;95058.22;;;-5.94;100.00
596;BME280;19946;49.306;11.350;2024-01-15T00:41:52;95078.06;;;-5.67;100.00
596;BME280;19946;49.306;11.350;2024-01-15T00:44:52;95032.88;;;-5.91;100.00
596;BME280;19946;49.306;11.350;2024-01-15T00:47:54;95022.34;;;-6.19;100.00
596;BME280;19946;49.306;11.350;2024-01-15T00:50:56;95017.69;;;-6.08;100.00
596;BME280;19946;49.306;11.350;2024-01-15T00:53:56;95036.88;;;-6.05;100.00
596;BME280;19946;49.306;11.350;2024-01-15T00:56:57;94984.13;;;-6.29;100.00
596;BME280;19946;49.306;11.350;2024-01-15T00:59:57;95027.47;;;-5.83;100.00
596;BME280;19946;49.306;11.350;2024-01-15T01:02:57;95024.91;;;-6.00;100.00
596;BME280;19946;49.306;11.350;2024-01-15T01:05:58;95023.59;;;-6.09;100.00
596;BME280;19946;49.306;11.350;2024-01-15T01:08:58;94963.16;;;-6.29;100.00
596;BME280;19946;49.306;11.350;2024-01-15T01:11:58;95018.63;;;-5.92;100.00
596;BME280;19946;49.306;11.350;2024-01-15T01:14:59;95038.00;;;-5.73;100.00
596;BME280;19946;49.306;11.350;2024-01-15T01:17:59;95021.91;;;-5.90;100.00
596;BME280;19946;49.306;11.350;2024-01-15T01:20:59;94999.28;;;-5.91;100.00
596;BME280;19946;49.306;11.350;2024-01-15T01:24:00;94971.91;;;-6.17;100.00
596;BME280;19946;49.306;11.350;2024-01-15T01:27:00;95021.91;;;-5.71;100.00
596;BME280;19946;49.306;11.350;2024-01-15T01:30:00;95048.84;;;-5.53;100.00
596;BME280;19946;49.306;11.350;2024-01-15T01:33:01;94986.63;;;-5.90;100.00
596;BME280;19946;49.306;11.350;2024-01-15T01:36:07;95055.44;;;-5.50;100.00
596;BME280;19946;49.306;11.350;2024-01-15T01:39:07;95038.81;;;-5.54;100.00
596;BME280;19946;49.306;11.350;2024-01-15T01:42:08;95038.75;;;-5.53;100.00
596;BME280;19946;49.306;11.350;2024-01-15T01:45:08;95023.81;;;-5.57;100.00
596;BME280;19946;49.306;11.350;2024-01-15T01:48:09;95019.41;;;-5.52;100.00
596;BME280;19946;49.306;11.350;2024-01-15T01:51:09;95038.88;;;-5.37;100.00
596;BME280;19946;49.306;11.350;2024-01-15T01:54:10;95007.78;;;-5.56;100.00
596;BME280;19946;49.306;11.350;2024-01-15T01:57:14;95014.34;;;-5.52;100.00
596;BME280;19946;49.306;11.350;2024-01-15T02:00:15;95048.13;;;-5.19;100.00
596;BME280;19946;49.306;11.350;2024-01-15T02:03:16;94991.84;;;-5.57;100.00
596;BME280;19946;49.306;11.350;2024-01-15T02:06:18;95029.72;;;-5.21;100.00
596;BME280;19946;49.306;11.350;2024-01-15T02:09:18;95032.00;;;-5.52;100.00
596;BME280;19946;49.306;11.350;2024-01-15T02:12:18;95023.63;;;-5.53;100.00
596;BME280;19946;49.306;11.350;2024-01-15T02:15:19;95025.25;;;-5.33;100.00
596;BME280;19946;49.306;11.350;2024-01-15T02:18:19;95027.34;;;-5.24;100.00
596;BME280;19946;49.306;11.350;2024-01-15T02:21:20;95013.38;;;-5.31;100.00
596;BME280;19946;49.306;11.350;2024-01-15T02:24:20;95023.44;;;-5.12;100.00
596;BME280;19946;49.306;11.350;2024-01-15T02:27:21;94997.56;;;-5.34;100.00
596;BME280;19946;49.306;11.350;2024-01-15T02:30:22;95016.69;;;-5.11;100.00
596;BME280;19946;49.306;11.350;2024-01-15T02:33:23;95028.25;;;-5.07;100.00
596;BME280;19946;49.306;11.350;2024-01-15T02:36:23;95012.94;;;-5.22;100.00
596;BME280;19946;49.306;11.350;2024-01-15T02:39:24;95029.31;;;-4.94;100.00
596;BME280;19946;49.306;11.350;2024-01-15T02:42:26;94998.91;;;-4.91;100.00
596;BME280;19946;49.306;11.350;2024-01-15T02:45:26;95023.94;;;-4.87;100.00
596;BME280;19946;49.306;11.350;2024-01-15T02:48:27;95035.53;;;-4.65;100.00
596;BME280;19946;49.306;11.350;2024-01-15T02:51:27;95033.06;;;-4.84;100.00
596;BME280;19946;49.306;11.350;2024-01-15T02:54:27;95032.16;;;-4.83;100.00
596;BME280;19946;49.306;11.350;2024-01-15T02:57:28;95036.31;;;-4.82;100.00
596;BME280;19946;49.306;11.350;2024-01-15T03:00:28;95031.66;;;-4.90;100.00
596;BME280;19946;49.306;11.350;2024-01-15T03:03:28;95035.97;;;-4.74;100.00
596;BME280;19946;49.306;11.350;2024-01-15T03:06:29;95031.97;;;-4.79;100.00
596;BME280;19946;49.306;11.350;2024-01-15T03:09:29;95036.34;;;-4.65;100.00
596;BME280;19946;49.306;11.350;2024-01-15T03:12:29;95028.63;;;-4.62;100.00
596;BME280;19946;49.306;11.350;2024-01-15T03:15:30;95024.00;;;-4.54;100.00
596;BME280;19946;49.306;11.350;2024-01-15T03:18:30;95016.13;;;-4.65;100.00
596;BME280;19946;49.306;11.350;2024-01-15T03:21:30;95025.56;;;-4.51;100.00
596;BME280;19946;49.306;11.350;2024-01-15T03:24:31;95011.09;;;-4.48;100.00
596;BME280;19946;49.306;11.350;2024-01-15T03:27:32;95015.13;;;-4.44;100.00
596;BME280;19946;49.306;11.350;2024-01-15T03:30:32;94999.66;;;-4.55;100.00
596;BME280;19946;49.306;11.350;2024-01-15T03:33:33;95017.84;;;-4.48;100.00
596;BME280;19946;49.306;11.350;2024-01-15T03:36:33;95018.97;;;-4.36;100.00
596;BME280;19946;49.306;11.350;2024-01-15T03:39:33;95003.50;;;-4.48;100.00
596;BME280;19946;49.306;11.350;2024-01-15T03:42:33;94989.63;;;-4.56;100.00
596;BME280;19946;49.306;11.350;2024-01-15T03:45:34;94997.50;;;-4.45;100.00
596;BME280;19946;49.306;11.350;2024-01-15T03:48:34;94985.59;;;-4.43;100.00
596;BME280;19946;49.306;11.350;2024-01-15T03:51:34;94988.22;;;-4.45;100.00
596;BME280;19946;49.306;11.350;2024-01-15T03:54:35;94978.75;;;-4.41;100.00
596;BME280;19946;49.306;11.350;2024-01-15T03:57:35;94987.91;;;-4.38;100.00
596;BME280;19946;49.306;11.350;2024-01-15T04:00:35;94995.41;;;-4.37;100.00
596;BME280;19946;49.306;11.350;2024-01-15T04:03:36;94993.69;;;-4.36;100.00
596;BME280;19946;49.306;11.350;2024-01-15T04:06:36;94982.69;;;-4.35;100.00
596;BME280;19946;49.306;11.350;2024-01-15T04:09:37;94973.56;;;-4.38;100.00
596;BME280;19946;49.306;11.350;2024-01-15T04:12:38;94986.84;;;-4.34;100.00
596;BME280;19946;49.306;11.350;2024-01-15T04:15:38;94963.94;;;-4.31;100.00
596;BME280;19946;49.306;11.350;2024-01-15T04:18:38;94976.22;;;-4.24;100.00
596;BME280;19946;49.306;11.350;2024-01-15T04:21:39;94962.75;;;-4.24;100.00
596;BME280;19946;49.306;11.350;2024-01-15T04:24:39;94968.22;;;-4.16;100.00
596;BME280;19946;49.306;11.350;2024-01-15T04:27:39;94971.59;;;-4.16;100.00
596;BME280;19946;49.306;11.350;2024-01-15T04:30:39;94970.63;;;-4.13;100.00
596;BME280;19946;49.306;11.350;2024-01-15T04:33:40;94964.22;;;-4.20;100.00
596;BME280;19946;49.306;11.350;2024-01-15T04:36:40;94949.91;;;-4.37;100.00
596;BME280;19946;49.306;11.350;2024-01-15T04:39:41;94971.78;;;-4.03;100.00
596;BME280;19946;49.306;11.350;2024-01-15T04:42:41;94962.00;;;-4.26;100.00
596;BME280;19946;49.306;11.350;2024-01-15T04:45:42;94973.28;;;-4.16;100.00
596;BME280;19946;49.306;11.350;2024-01-15T04:48:42;94973.72;;;-4.08;100.00
596;BME280;19946;49.306;11.350;2024-01-15T04:51:42;94972.25;;;-3.96;100.00
596;BME280;19946;49.306;11.350;2024-01-15T04:54:43;94971.38;;;-3.95;100.00
596;BME280;19946;49.306;11.350;2024-01-15T04:57:43;94975.06;;;-4.01;100.00
596;BME280;19946;49.306;11.350;2024-01-15T05:00:44;94977.88;;;-4.07;100.00
596;BME280;19946;49.306;11.350;2024-01-15T05:03:44;94986.16;;;-3.88;100.00
596;BME280;19946;49.306;11.350;2024-01-15T05:06:44;94976.53;;;-3.81;100.00
596;BME280;19946;49.306;11.350;2024-01-15T05:09:45;94975.06;;;-4.01;100.00
596;BME280;19946;49.306;11.350;2024-01-15T05:12:45;94966.72;;;-4.03;100.00
596;BME280;19946;49.306;11.350;2024-01-15T05:15:45;94974.78;;;-3.96;100.00
596;BME280;19946;49.306;11.350;2024-01-15T05:18:46;94964.72;;;-3.81;100.00
596;BME280;19946;49.306;11.350;2024-01-15T05:21:46;94962.66;;;-3.90;100.00
596;BME280;19946;49.306;11.350;2024-01-15T05:24:46;94951.81;;;-3.92;100.00
596;BME280;19946;49.306;11.350;2024-01-15T05:27:46;94958.50;;;-3.91;100.00
596;BME280;19946;49.306;11.350;2024-01-15T05:30:47;94956.25;;;-3.80;100.00
596;BME280;19946;49.306;11.350;2024-01-15T05:33:48;94936.72;;;-3.93;100.00
596;BME280;19946;49.306;11.350;2024-01-15T05:36:48;94944.44;;;-3.96;100.00
596;BME280;19946;49.306;11.350;2024-01-15T05:39:48;94932.72;;;-3.82;100.00
596;BME280;19946;49.306;11.350;2024-01-15T05:42:48;94921.69;;;-3.96;100.00
596;BME280;19946;49.306;11.350;2024-01-15T05:45:49;94950.03;;;-3.74;100.00
596;BME280;19946;49.306;11.350;2024-01-15T05:48:49;94958.44;;;-3.74;100.00
596;BME280;19946;49.306;11.350;2024-01-15T05:51:49;94949.22;;;-3.75;100.00
596;BME280;19946;49.306;11.350;2024-01-15T05:54:51;94950.88;;;-3.58;100.00
596;BME280;19946;49.306;11.350;2024-01-15T05:57:51;94948.53;;;-3.78;100.00
596;BME280;19946;49.306;11.350;2024-01-15T06:00:52;94953.16;;;-3.69;100.00
596;BME280;19946;49.306;11.350;2024-01-15T06:03:52;94924.00;;;-3.76;100.00
596;BME280;19946;49.306;11.350;2024-01-15T06:06:52;94963.59;;;-3.59;100.00
596;BME280;19946;49.306;11.350;2024-01-15T06:09:53;94946.78;;;-3.60;100.00
596;BME280;19946;49.306;11.350;2024-01-15T06:12:53;94952.00;;;-3.63;100.00
596;BME280;19946;49.306;11.350;2024-01-15T06:15:53;94949.28;;;-3.45;100.00
596;BME280;19946;49.306;11.350;2024-01-15T06:18:54;94954.44;;;-3.46;100.00
596;BME280;19946;49.306;11.350;2024-01-15T06:21:54;94956.56;;;-3.54;100.00
596;BME280;19946;49.306;11.350;2024-01-15T06:24:54;94962.25;;;-3.35;100.00
596;BME280;19946;49.306;11.350;2024-01-15T06:27:55;94932.97;;;-3.55;100.00
596;BME280;19946;49.306;11.350;2024-01-15T06:30:57;94942.00;;;-3.35;100.00
596;BME280;19946;49.306;11.350;2024-01-15T06:33:57;94948.81;;;-3.36;100.00
596;BME280;19946;49.306;11.350;2024-01-15T06:36:58;94953.91;;;-3.21;100.00
596;BME280;19946;49.306;11.350;2024-01-15T06:39:58;94954.78;;;-3.37;100.00
596;BME280;19946;49.306;11.350;2024-01-15T06:42:58;94949.28;;;-3.29;100.00
596;BME280;19946;49.306;11.350;2024-01-15T06:45:59;94948.13;;;-3.23;100.00
596;BME280;19946;49.306;11.350;2024-01-15T06:48:59;94941.03;;;-3.33;100.00
596;BME280;19946;49.306;11.350;2024-01-15T06:51:59;94941.84;;;-3.32;100.00
596;BME280;19946;49.306;11.350;2024-01-15T06:55:00;94912.56;;;-3.36;100.00
596;BME280;19946;49.306;11.350;2024-01-15T06:58:00;94939.31;;;-3.32;100.00
596;BME280;19946;49.306;11.350;2024-01-15T07:01:03;94936.72;;;-3.31;100.00
596;BME280;19946;49.306;11.350;2024-01-15T07:04:04;94926.97;;;-3.22;100.00
596;BME280;19946;49.306;11.350;2024-01-15T07:07:05;94930.97;;;-3.34;100.00
596;BME280;19946;49.306;11.350;2024-01-15T07:10:05;94910.03;;;-3.36;100.00
596;BME280;19946;49.306;11.350;2024-01-15T07:13:06;94903.66;;;-3.43;100.00
596;BME280;19946;49.306;11.350;2024-01-15T07:16:06;94947.81;;;-3.17;100.00
596;BME280;19946;49.306;11.350;2024-01-15T07:19:07;94934.66;;;-3.24;100.00
596;BME280;19946;49.306;11.350;2024-01-15T07:22:08;94931.25;;;-3.39;100.00
596;BME280;19946;49.306;11.350;2024-01-15T07:25:08;94937.69;;;-3.33;100.00
596;BME280;19946;49.306;11.350;2024-01-15T07:28:09;94939.25;;;-3.31;100.00
596;BME280;19946;49.306;11.350;2024-01-15T07:31:09;94932.88;;;-3.38;100.00
596;BME280;19946;49.306;11.350;2024-01-15T07:34:09;94949.53;;;-3.34;100.00
596;BME280;19946;49.306;11.350;2024-01-15T07:37:10;94941.09;;;-3.18;100.00
596;BME280;19946;49.306;11.350;2024-01-15T07:40:11;94942.75;;;-3.17;100.00
596;BME280;19946;49.306;11.350;2024-01-15T07:43:12;94959.34;;;-2.98;100.00
596;BME280;19946;49.306;11.350;2024-01-15T07:46:12;94940.22;;;-3.17;100.00
596;BME280;19946;49.306;11.350;2024-01-15T07:49:13;94935.66;;;-3.26;100.00
596;BME280;19946;49.306;11.350;2024-01-15T07:52:13;94924.41;;;-3.37;100.00
596;BME280;19946;49.306;11.350;2024-01-15T07:55:14;94949.66;;;-3.05;100.00
596;BME280;19946;49.306;11.350;2024-01-15T07:58:15;94946.72;;;-3.13;100.00
596;BME280;19946;49.306;11.350;2024-01-15T08:01:15;94932.13;;;-3.24;100.00
596;BME280;19946;49.306;11.350;2024-01-15T08:04:16;94935.66;;;-3.26;100.00
596;BME280;19946;49.306;11.350;2024-01-15T08:07:16;94956.13;;;-3.15;100.00
596;BME280;19946;49.306;11.350;2024-01-15T08:10:17;94938.94;;;-2.95;100.00
596;BME280;19946;49.306;11.350;2024-01-15T08:13:18;94940.03;;;-3.14;100.00
596;BME280;19946;49.306;11.350;2024-01-15T08:16:18;94937.31;;;-2.96;100.00
596;BME280;19946;49.306;11.350;2024-01-15T08:19:19;94936.00;;;-3.03;100.00
596;BME280;19946;49.306;11.350;2024-01-15T08:22:22;94942.44;;;-2.97;100.00
596;BME280;19946;49.306;11.350;2024-01-15T08:25:23;94946.84;;;-3.01;100.00
596;BME280;19946;49.306;11.350;2024-01-15T08:28:24;94920.59;;;-3.14;100.00
596;BME280;19946;49.306;11.350;2024-01-15T08:31:24;94943.72;;;-2.90;100.00
596;BME280;19946;49.306;11.350;2024-01-15T08:34:25;94944.75;;;-2.78;100.00
596;BME280;19946;49.306;11.350;2024-01-15T08:37:25;94938.50;;;-2.87;100.00
596;BME280;19946;49.306;11.350;2024-01-15T08:40:25;94956.81;;;-2.82;100.00
596;BME280;19946;49.306;11.350;2024-01-15T08:43:26;94945.84;;;-2.82;100.00
596;BME280;19946;49.306;11.350;2024-01-15T08:46:27;94954.75;;;-2.91;100.00
596;BME280;19946;49.306;11.350;2024-01-15T08:49:27;94949.97;;;-2.96;100.00
596;BME280;19946;49.306;11.350;2024-01-15T08:52:27;94941.59;;;-2.82;100.00
596;BME280;19946;49.306;11.350;2024-01-15T08:55:27;94936.72;;;-3.01;100.00
596;BME280;19946;49.306;11.350;2024-01-15T08:58:28;94944.81;;;-2.64;100.00
596;BME280;19946;49.306;11.350;2024-01-15T09:01:28;94944.06;;;-2.66;100.00
596;BME280;19946;49.306;11.350;2024-01-15T09:04:29;94945.44;;;-2.61;100.00
596;BME280;19946;49.306;11.350;2024-01-15T09:07:29;94954.00;;;-2.77;100.00
596;BME280;19946;49.306;11.350;2024-01-15T09:10:30;94948.75;;;-2.74;100.00
596;BME280;19946;49.306;11.350;2024-01-15T09:13:30;94933.41;;;-2.71;100.00
596;BME280;19946;49.306;11.350;2024-01-15T09:16:31;94957.00;;;-2.71;100.00
596;BME280;19946;49.306;11.350;2024-01-15T09:19:31;94945.13;;;-2.70;100.00
596;BME280;19946;49.306;11.350;2024-01-15T09:22:31;94950.88;;;-2.52;100.00
596;BME280;19946;49.306;11.350;2024-01-15T09:25:32;94948.34;;;-2.52;100.00
596;BME280;19946;49.306;11.350;2024-01-15T09:28:32;94942.91;;;-2.61;100.00
596;BME280;19946;49.306;11.350;2024-01-15T09:31:32;94951.63;;;-2.50;100.00
596;BME280;19946;49.306;11.350;2024-01-15T09:34:33;94959.97;;;-2.34;100.00
596;BME280;19946;49.306;11.350;2024-01-15T09:37:34;94958.88;;;-2.44;100.00
596;BME280;19946;49.306;11.350;2024-01-15T09:40:38;94952.78;;;-2.56;100.00
596;BME280;19946;49.306;11.350;2024-01-15T09:43:38;94944.28;;;-2.55;100.00
596;BME280;19946;49.306;11.350;2024-01-15T09:46:40;94963.88;;;-2.29;100.00
596;BME280;19946;49.306;11.350;2024-01-15T09:49:41;94962.88;;;-2.40;100.00
596;BME280;19946;49.306;11.350;2024-01-15T09:52:43;94942.59;;;-2.40;100.00
596;BME280;19946;49.306;11.350;2024-01-15T09:55:44;94955.72;;;-2.19;100.00
596;BME280;19946;49.306;11.350;2024-01-15T09:58:45;94930.06;;;-2.43;100.00
596;BME280;19946;49.306;11.350;2024-01-15T10:01:47;94934.47;;;-2.17;100.00
596;BME280;19946;49.306;11.350;2024-01-15T10:04:48;94932.72;;;-2.02;100.00
596;BME280;19946;49.306;11.350;2024-01-15T10:07:49;94933.41;;;-1.72;100.00
596;BME280;19946;49.306;11.350;2024-01-15T10:10:50;94924.66;;;-1.95;100.00
596;BME280;19946;49.306;11.350;2024-01-15T10:13:50;94918.41;;;-1.89;100.00
596;BME280;19946;49.306;11.350;2024-01-15T10:16:53;94916.63;;;-1.60;100.00
596;BME280;19946;49.306;11.350;2024-01-15T10:19:53;94902.63;;;-1.80;100.00
596;BME280;19946;49.306;11.350;2024-01-15T10:22:53;94916.19;;;-1.67;100.00
596;BME280;19946;49.306;11.350;2024-01-15T10:25:57;94915.53;;;-1.56;100.00
596;BME280;19946;49.306;11.350;2024-01-15T10:29:00;94901.38;;;-1.60;100.00
596;BME280;19946;49.306;11.350;2024-01-15T10:32:01;94912.03;;;-1.68;100.00
596;BME280;19946;49.306;11.350;2024-01-15T10:35:01;94902.09;;;-1.44;100.00
596;BME280;19946;49.306;11.350;2024-01-15T10:38:02;94898.34;;;-1.65;100.00
596;BME280;19946;49.306;11.350;2024-01-15T10:41:03;94870.44;;;-1.79;100.00
596;BME280;19946;49.306;11.350;2024-01-15T10:44:04;94893.19;;;-1.92;100.00
596;BME280;19946;49.306;11.350;2024-01-15T10:47:05;94881.34;;;-1.92;100.00
596;BME280;19946;49.306;11.350;2024-01-15T10:50:06;94891.53;;;-1.65;100.00
596;BME280;19946;49.306;11.350;2024-01-15T10:53:08;94895.75;;;-1.92;100.00
596;BME280;19946;49.306;11.350;2024-01-15T10:56:09;94892.84;;;-1.86;100.00
596;BME280;19946;49.306;11.350;2024-01-15T10:59:11;94890.75;;;-1.79;100.00
596;BME280;19946;49.306;11.350;2024-01-15T11:02:14;94885.44;;;-2.03;100.00
596;BME280;19946;49.306;11.350;2024-01-15T11:05:15;94895.00;;;-1.80;100.00
596;BME280;19946;49.306;11.350;2024-01-15T11:08:17;94893.19;;;-1.92;100.00
596;BME280;19946;49.306;11.350;2024-01-15T11:11:20;94886.31;;;-1.76;100.00
596;BME280;19946;49.306;11.350;2024-01-15T11:14:34;94886.06;;;-1.86;100.00
596;BME280;19946;49.306;11.350;2024-01-15T11:18:00;94875.53;;;-1.94;100.00
596;BME280;19946;49.306;11.350;2024-01-15T11:21:19;94880.00;;;-1.97;100.00
596;BME280;19946;49.306;11.350;2024-01-15T11:24:34;94883.75;;;-2.17;100.00
596;BME280;19946;49.306;11.350;2024-01-15T11:27:52;94874.94;;;-2.11;100.00
596;BME280;19946;49.306;11.350;2024-01-15T11:30:53;94873.66;;;-2.04;100.00
596;BME280;19946;49.306;11.350;2024-01-15T11:33:53;94871.00;;;-1.89;100.00
596;BME280;19946;49.306;11.350;2024-01-15T11:40:00;94872.47;;;-1.99;100.00
596;BME280;19946;49.306;11.350;2024-01-15T11:43:02;94874.28;;;-1.87;100.00
596;BME280;19946;49.306;11.350;2024-01-15T11:46:02;94877.00;;;-2.04;100.00
596;BME280;19946;49.306;11.350;2024-01-15T11:49:04;94866.25;;;-2.07;100.00
596;BME280;19946;49.306;11.350;2024-01-15T11:52:06;94864.63;;;-2.23;100.00
596;BME280;19946;49.306;11.350;2024-01-15T11:55:11;94866.44;;;-2.25;100.00
596;BME280;19946;49.306;11.350;2024-01-15T11:58:13;94869.94;;;-2.13;100.00
596;BME280;19946;49.306;11.350;2024-01-15T12:01:13;94860.56;;;-2.39;100.00
596;BME280;19946;49.306;11.350;2024-01-15T12:04:14;94868.22;;;-2.27;100.00
596;BME280;19946;49.306;11.350;2024-01-15T12:07:15;94862.81;;;-2.21;100.00
596;BME280;19946;49.306;11.350;2024-01-15T12:10:20;94855.94;;;-2.33;100.00
596;BME280;19946;49.306;11.350;2024-01-15T12:13:24;94854.31;;;-2.19;100.00
596;BME280;19946;49.306;11.350;2024-01-15T12:16:24;94862.25;;;-2.11;100.00
596;BME280;19946;49.306;11.350;2024-01-15T12:19:25;94851.22;;;-2.10;100.00
596;BME280;19946;49.306;11.350;2024-01-15T12:22:26;94797.94;;;-2.51;100.00
596;BME280;19946;49.306;11.350;2024-01-15T12:25:28;94837.28;;;-2.17;100.00
596;BME280;19946;49.306;11.350;2024-01-15T12:28:30;94848.50;;;-2.36;100.00
596;BME280;19946;49.306;11.350;2024-01-15T12:31:30;94853.97;;;-2.28;100.00
596;BME280;19946;49.306;11.350;2024-01-15T12:34:30;94851.03;;;-2.36;100.00
596;BME280;19946;49.306;11.350;2024-01-15T12:37:32;94862.00;;;-2.21;100.00
596;BME280;19946;49.306;11.350;2024-01-15T12:40:33;94844.69;;;-2.14;100.00
596;BME280;19946;49.306;11.350;2024-01-15T12:43:36;94843.81;;;-2.28;100.00
596;BME280;19946;49.306;11.350;2024-01-15T12:46:36;94832.28;;;-2.19;100.00
596;BME280;19946;49.306;11.350;2024-01-15T12:49:37;94846.53;;;-2.31;100.00
596;BME280;19946;49.306;11.350;2024-01-15T12:52:40;94849.97;;;-2.32;100.00
596;BME280;19946;49.306;11.350;2024-01-15T12:55:40;94822.59;;;-2.27;100.00
596;BME280;19946;49.306;11.350;2024-01-15T12:58:41;94823.31;;;-2.25;100.00
596;BME280;19946;49.306;11.350;2024-01-15T13:01:41;94828.69;;;-2.29;100.00
596;BME280;19946;49.306;11.350;2024-01-15T13:04:42;94818.56;;;-1.88;100.00
596;BME280;19946;49.306;11.350;2024-01-15T13:07:43;94838.91;;;-2.31;100.00
596;BME280;19946;49.306;11.350;2024-01-15T13:10:43;94842.09;;;-2.27;100.00
596;BME280;19946;49.306;11.350;2024-01-15T13:13:44;94834.38;;;-2.26;100.00
596;BME280;19946;49.306;11.350;2024-01-15T13:16:44;94838.53;;;-2.25;100.00
596;BME280;19946;49.306;11.350;2024-01-15T13:19:44;94829.56;;;-2.16;100.00
596;BME280;19946;49.306;11.350;2024-01-15T13:22:45;94831.75;;;-2.24;100.00
596;BME280;19946;49.306;11.350;2024-01-15T13:25:46;94822.97;;;-2.18;100.00
596;BME280;19946;49.306;11.350;2024-01-15T13:28:46;94837.53;;;-2.08;100.00
596;BME280;19946;49.306;11.350;2024-01-15T13:31:46;94846.13;;;-1.96;100.00
596;BME280;19946;49.306;11.350;2024-01-15T13:34:47;94843.34;;;-2.20;100.00
596;BME280;19946;49.306;11.350;2024-01-15T13:37:47;94839.91;;;-2.19;100.00
596;BME280;19946;49.306;11.350;2024-01-15T13:40:47;94842.97;;;-2.14;100.00
596;BME280;19946;49.306;11.350;2024-01-15T13:43:49;94835.25;;;-2.12;100.00
596;BME280;19946;49.306;11.350;2024-01-15T13:46:50;94832.28;;;-2.19;100.00
596;BME280;19946;49.306;11.350;2024-01-15T13:49:50;94831.72;;;-2.10;100.00
596;BME280;19946;49.306;11.350;2024-01-15T13:52:50;94835.09;;;-2.09;100.00
596;BME280;19946;49.306;11.350;2024-01-15T13:55:51;94839.66;;;-2.29;100.00
596;BME280;19946;49.306;11.350;2024-01-15T13:58:51;94841.63;;;-2.34;100.00
596;BME280;19946;49.306;11.350;2024-01-15T14:01:52;94848.50;;;-2.22;100.00
596;BME280;19946;49.306;11.350;2024-01-15T14:04:52;94857.19;;;-2.11;100.00
596;BME280;19946;49.306;11.350;2024-01-15T14:07:52;94845.78;;;-2.47;100.00
596;BME280;19946;49.306;11.350;2024-01-15T14:10:53;94855.66;;;-2.42;100.00
596;BME280;19946;49.306;11.350;2024-01-15T14:13:54;94844.53;;;-2.40;100.00
596;BME280;19946;49.306;11.350;2024-01-15T14:16:54;94840.38;;;-2.41;100.00
596;BME280;19946;49.306;11.350;2024-01-15T14:19:54;94871.88;;;-2.31;100.00
596;BME280;19946;49.306;11.350;2024-01-15T14:22:55;94858.66;;;-2.36;100.00
596;BME280;19946;49.306;11.350;2024-01-15T14:25:56;94865.63;;;-2.25;100.00
596;BME280;19946;49.306;11.350;2024-01-15T14:28:56;94860.00;;;-2.30;100.00
596;BME280;19946;49.306;11.350;2024-01-15T14:31:56;94861.00;;;-2.18;100.00
596;BME280;19946;49.306;11.350;2024-01-15T14:34:57;94864.06;;;-2.13;100.00
596;BME280;19946;49.306;11.350;2024-01-15T14:37:57;94857.00;;;-2.23;100.00
596;BME280;19946;49.306;11.350;2024-01-15T14:40:58;94847.94;;;-2.27;100.00
596;BME280;19946;49.306;11.350;2024-01-15T14:43:58;94853.22;;;-2.30;100.00
596;BME280;19946;49.306;11.350;2024-01-15T14:46:59;94833.84;;;-2.45;100.00
596;BME280;19946;49.306;11.350;2024-01-15T14:49:59;94816.44;;;-2.37;100.00
596;BME280;19946;49.306;11.350;2024-01-15T14:52:59;94863.16;;;-2.27;100.00
596;BME280;19946;49.306;11.350;2024-01-15T14:56:00;94865.53;;;-2.38;100.00
596;BME280;19946;49.306;11.350;2024-01-15T14:59:02;94853.22;;;-2.44;100.00
596;BME280;19946;49.306;11.350;2024-01-15T15:02:03;94876.41;;;-2.22;100.00
596;BME280;19946;49.306;11.350;2024-01-15T15:05:03;94881.72;;;-2.12;100.00
596;BME280;19946;49.306;11.350;2024-01-15T15:08:04;94885.00;;;-2.24;100.00
596;BME280;19946;49.306;11.350;2024-01-15T15:11:08;94866.63;;;-2.42;100.00
596;BME280;19946;49.306;11.350;2024-01-15T15:14:09;94890.44;;;-2.30;100.00
596;BME280;19946;49.306;11.350;2024-01-15T15:17:09;94873.69;;;-2.33;100.00
596;BME280;19946;49.306;11.350;2024-01-15T15:20:10;94856.03;;;-2.34;100.00
596;BME280;19946;49.306;11.350;2024-01-15T15:23:10;94852.50;;;-2.46;100.00
596;BME280;19946;49.306;11.350;2024-01-15T15:26:11;94880.47;;;-2.19;100.00
596;BME280;19946;49.306;11.350;2024-01-15T15:29:11;94897.22;;;-2.16;100.00
596;BME280;19946;49.306;11.350;2024-01-15T15:32:11;94907.56;;;-2.19;100.00
596;BME280;19946;49.306;11.350;2024-01-15T15:35:13;94901.00;;;-2.38;100.00
596;BME280;19946;49.306;11.350;2024-01-15T15:38:13;94913.16;;;-2.14;100.00
596;BME280;19946;49.306;11.350;2024-01-15T15:41:13;94925.81;;;-2.14;100.00
596;BME280;19946;49.306;11.350;2024-01-15T15:44:14;94904.19;;;-2.34;100.00
596;BME280;19946;49.306;11.350;2024-01-15T15:47:16;94919.97;;;-2.29;100.00
596;BME280;19946;49.306;11.350;2024-01-15T15:50:17;94889.34;;;-2.40;100.00
596;BME280;19946;49.306;11.350;2024-01-15T15:53:19;94934.81;;;-2.23;100.00
596;BME280;19946;49.306;11.350;2024-01-15T15:56:20;94929.34;;;-2.45;100.00
596;BME280;19946;49.306;11.350;2024-01-15T15:59:20;94942.50;;;-2.39;100.00
596;BME280;19946;49.306;11.350;2024-01-15T16:02:21;94921.81;;;-2.47;100.00